createdAt,value
2018-09-20T00:01:26.666Z,76.16
2018-09-20T00:03:54.906Z,75.25
2018-09-20T00:06:23.152Z,76.18
2018-09-20T00:08:51.452Z,76.36
2018-09-20T00:11:19.706Z,75.85
2018-09-20T00:13:47.935Z,75.94
2018-09-20T00:16:18.452Z,75.42
2018-09-20T00:18:46.716Z,75.32
2018-09-20T00:21:14.928Z,75.95
2018-09-20T00:23:42.993Z,76.36
2018-09-20T00:26:11.087Z,77.17
2018-09-20T00:28:39.172Z,76.93
2018-09-20T00:31:07.268Z,78.18
2018-09-20T00:33:35.337Z,78.24
2018-09-20T00:36:03.432Z,78.75
2018-09-20T00:38:31.495Z,78.04
2018-09-20T00:40:59.581Z,78.13
2018-09-20T00:43:27.649Z,77.39
2018-09-20T00:45:55.734Z,77.06
2018-09-20T00:48:23.824Z,77.29
2018-09-20T00:50:51.899Z,77.74
2018-09-20T00:53:20.016Z,78.54
2018-09-20T00:55:48.111Z,78.67
2018-09-20T00:58:16.184Z,78.75
2018-09-20T01:00:44.266Z,80.24
2018-09-20T01:03:12.341Z,80.05
2018-09-20T01:05:40.531Z,80.02
2018-09-20T01:08:08.679Z,79.72
2018-09-20T01:10:36.771Z,80.18
2018-09-20T01:13:04.856Z,79.50
2018-09-20T01:15:33.111Z,79.10
2018-09-20T01:18:01.195Z,80.24
2018-09-20T01:20:29.279Z,79.42
2018-09-20T01:22:57.356Z,80.14
2018-09-20T01:25:25.423Z,81.64
2018-09-20T01:27:53.492Z,82.12
2018-09-20T01:30:21.613Z,82.18
2018-09-20T01:32:49.757Z,82.74
2018-09-20T01:35:17.836Z,82.02
2018-09-20T01:37:45.923Z,81.59
2018-09-20T01:40:14.035Z,80.92
2018-09-20T01:42:42.123Z,80.90
2018-09-20T01:45:10.231Z,81.59
2018-09-20T01:47:38.384Z,81.30
2018-09-20T01:50:06.635Z,81.35
2018-09-20T01:52:34.725Z,81.74
2018-09-20T01:55:02.960Z,81.66
2018-09-20T01:57:31.031Z,81.52
2018-09-20T01:59:59.139Z,81.30
2018-09-20T02:02:27.280Z,81.87
2018-09-20T02:04:55.433Z,81.99
2018-09-20T02:07:23.542Z,81.59
2018-09-20T02:09:51.614Z,82.07
2018-09-20T02:12:19.692Z,81.58
2018-09-20T02:14:47.783Z,83.15
2018-09-20T02:17:15.979Z,83.22
2018-09-20T02:19:44.052Z,83.35
2018-09-20T02:22:12.136Z,82.80
2018-09-20T02:24:40.205Z,82.18
2018-09-20T02:27:08.308Z,82.31
2018-09-20T02:29:36.389Z,82.22
2018-09-20T02:32:04.508Z,82.15
2018-09-20T02:34:32.591Z,82.11
2018-09-20T02:37:00.684Z,82.84
2018-09-20T02:39:28.765Z,83.35
2018-09-20T02:41:56.867Z,83.78
2018-09-20T02:44:24.949Z,83.27
2018-09-20T02:46:59.402Z,83.42
2018-09-20T02:49:27.514Z,83.04
2018-09-20T02:51:55.609Z,82.96
2018-09-20T02:54:23.691Z,82.59
2018-09-20T02:56:51.772Z,82.20
2018-09-20T02:59:19.855Z,83.53
2018-09-20T03:01:48.041Z,83.39
2018-09-20T03:04:16.181Z,84.04
2018-09-20T03:06:44.241Z,83.97
2018-09-20T03:09:12.517Z,84.54
2018-09-20T03:11:40.604Z,84.21
2018-09-20T03:14:08.822Z,84.11
2018-09-20T03:16:36.928Z,85.01
2018-09-20T03:19:05.356Z,84.92
2018-09-20T03:21:33.425Z,85.51
2018-09-20T03:24:01.537Z,85.01
2018-09-20T03:26:29.666Z,85.48
2018-09-20T03:28:57.728Z,85.30
2018-09-20T03:31:25.847Z,86.43
2018-09-20T03:33:54.089Z,86.02
2018-09-20T03:36:22.171Z,87.27
2018-09-20T03:38:50.256Z,87.23
2018-09-20T03:41:18.359Z,87.76
2018-09-20T03:43:53.223Z,87.49
2018-09-20T03:46:21.356Z,87.81
2018-09-20T03:48:49.516Z,87.58
2018-09-20T03:51:17.595Z,86.17
2018-09-20T03:53:45.689Z,85.51
2018-09-20T03:56:13.760Z,84.76
2018-09-20T03:58:41.867Z,85.79
2018-09-20T04:01:09.962Z,85.75
2018-09-20T04:03:38.070Z,85.26
2018-09-20T04:06:06.213Z,85.00
2018-09-20T04:08:34.335Z,85.28
2018-09-20T04:11:02.419Z,85.03
2018-09-20T04:13:30.495Z,85.41
2018-09-20T04:15:58.769Z,85.88
2018-09-20T04:18:26.885Z,86.16
2018-09-20T04:20:54.987Z,86.24
2018-09-20T04:23:23.083Z,85.90
2018-09-20T04:25:51.155Z,85.50
2018-09-20T04:28:19.263Z,86.37
2018-09-20T04:30:47.350Z,85.81
2018-09-20T04:33:15.536Z,85.89
2018-09-20T04:35:43.615Z,86.18
2018-09-20T04:38:11.692Z,85.84
2018-09-20T04:40:39.750Z,86.51
2018-09-20T04:43:07.843Z,85.63
2018-09-20T04:45:36.070Z,85.70
2018-09-20T04:48:04.300Z,84.89
2018-09-20T04:50:32.391Z,85.23
2018-09-20T04:53:00.486Z,85.33
2018-09-20T04:55:28.564Z,84.99
2018-09-20T04:57:56.629Z,84.84
2018-09-20T05:00:24.703Z,85.82
2018-09-20T05:02:52.816Z,86.15
2018-09-20T05:05:20.924Z,86.24
2018-09-20T05:07:48.996Z,86.29
2018-09-20T05:10:17.081Z,85.64
2018-09-20T05:12:45.182Z,85.50
2018-09-20T05:15:13.274Z,85.24
2018-09-20T05:17:41.351Z,86.00
2018-09-20T05:20:09.474Z,85.85
2018-09-20T05:22:37.539Z,85.88
2018-09-20T05:25:05.640Z,85.99
2018-09-20T05:27:33.896Z,85.26
2018-09-20T05:30:02.019Z,86.33
2018-09-20T05:32:30.149Z,85.62
2018-09-20T05:34:58.192Z,85.96
2018-09-20T05:37:26.249Z,85.72
2018-09-20T05:39:54.320Z,86.12
2018-09-20T05:42:22.438Z,86.33
2018-09-20T05:44:50.507Z,86.74
2018-09-20T05:47:18.584Z,87.21
2018-09-20T05:49:46.648Z,87.61
2018-09-20T05:52:14.752Z,86.83
2018-09-20T05:54:42.843Z,86.23
2018-09-20T05:57:10.961Z,87.19
2018-09-20T05:59:40.364Z,87.43
2018-09-20T06:02:08.539Z,87.11
2018-09-20T06:04:36.647Z,87.64
2018-09-20T06:07:04.787Z,87.52
2018-09-20T06:09:32.861Z,87.37
2018-09-20T06:12:01.015Z,87.98
2018-09-20T06:14:29.091Z,87.70
2018-09-20T06:16:57.175Z,88.11
2018-09-20T06:19:25.235Z,87.59
2018-09-20T06:21:53.371Z,89.28
2018-09-20T06:24:21.424Z,89.27
2018-09-20T06:26:49.505Z,89.14
2018-09-20T06:29:17.574Z,88.32
2018-09-20T06:31:45.669Z,88.28
2018-09-20T06:34:13.790Z,87.73
2018-09-20T06:36:42.089Z,88.00
2018-09-20T06:39:11.770Z,88.36
2018-09-20T06:41:39.963Z,88.25
2018-09-20T06:44:08.046Z,88.04
2018-09-20T06:46:36.183Z,87.63
2018-09-20T06:49:04.423Z,88.10
2018-09-20T06:51:32.535Z,87.75
2018-09-20T06:54:00.684Z,87.16
2018-09-20T06:56:28.866Z,87.10
2018-09-20T06:58:56.915Z,87.46
2018-09-20T07:01:24.992Z,88.18
2018-09-20T07:06:27.618Z,87.90
2018-09-20T07:08:55.675Z,87.42
2018-09-20T07:11:23.754Z,87.12
2018-09-20T07:13:51.832Z,85.65
2018-09-20T07:16:19.927Z,85.86
2018-09-20T07:18:48.055Z,85.21
2018-09-20T07:21:16.135Z,84.53
2018-09-20T07:23:44.221Z,83.44
2018-09-20T07:26:12.291Z,82.73
2018-09-20T07:28:40.376Z,82.61
2018-09-20T07:31:08.480Z,82.46
2018-09-20T07:33:36.552Z,81.71
2018-09-20T07:36:04.640Z,81.27
2018-09-20T07:38:32.730Z,80.36
2018-09-20T07:41:00.807Z,80.53
2018-09-20T07:43:28.975Z,78.89
2018-09-20T07:45:56.974Z,78.20
2018-09-20T07:48:25.066Z,77.37
2018-09-20T07:50:53.420Z,77.40
2018-09-20T07:53:21.561Z,76.65
2018-09-20T07:55:49.647Z,76.12
2018-09-20T07:58:17.732Z,75.98
2018-09-20T08:00:45.832Z,75.63
2018-09-20T08:03:13.904Z,74.69
2018-09-20T08:05:42.009Z,73.81
2018-09-20T08:08:10.095Z,74.42
2018-09-20T08:10:38.168Z,73.78
2018-09-20T08:13:06.259Z,73.34
2018-09-20T08:15:34.365Z,72.17
2018-09-20T08:18:02.493Z,72.61
2018-09-20T08:20:30.688Z,72.29
2018-09-20T08:22:58.784Z,70.89
2018-09-20T08:25:26.880Z,71.37
2018-09-20T08:27:55.011Z,70.25
2018-09-20T08:30:23.050Z,69.91
2018-09-20T08:32:51.176Z,68.47
2018-09-20T08:35:19.287Z,68.41
2018-09-20T08:37:47.787Z,67.89
2018-09-20T08:40:15.776Z,67.89
2018-09-20T08:42:43.854Z,67.00
2018-09-20T08:45:11.923Z,66.25
2018-09-20T08:47:40.000Z,66.02
2018-09-20T08:50:08.265Z,66.53
2018-09-20T08:52:36.385Z,65.72
2018-09-20T08:55:04.443Z,66.17
2018-09-20T08:57:38.116Z,65.51
2018-09-20T09:00:06.699Z,65.01
2018-09-20T09:02:34.820Z,64.54
2018-09-20T09:05:02.926Z,63.68
2018-09-20T09:07:31.014Z,62.87
2018-09-20T09:09:59.073Z,63.22
2018-09-20T09:12:27.128Z,62.63
2018-09-20T09:14:55.264Z,62.05
2018-09-20T09:17:23.372Z,60.73
2018-09-20T09:19:51.456Z,61.04
2018-09-20T09:22:19.527Z,59.45
2018-09-20T09:24:47.606Z,59.83
2018-09-20T09:27:15.696Z,59.27
2018-09-20T09:29:43.785Z,59.44
2018-09-20T09:32:11.866Z,59.52
2018-09-20T09:34:40.006Z,59.74
2018-09-20T09:37:08.082Z,59.23
2018-09-20T09:39:36.151Z,59.18
2018-09-20T09:42:04.228Z,58.47
2018-09-20T09:44:32.294Z,58.19
2018-09-20T09:47:00.384Z,58.15
2018-09-20T09:49:28.460Z,56.79
2018-09-20T09:51:56.551Z,56.33
2018-09-20T09:54:24.672Z,56.66
2018-09-20T09:56:52.720Z,56.37
2018-09-20T09:59:20.800Z,56.10
2018-09-20T10:01:48.980Z,56.55
2018-09-20T10:04:17.055Z,55.69
2018-09-20T10:06:45.140Z,55.23
2018-09-20T10:09:13.227Z,54.44
2018-09-20T10:11:41.323Z,54.80
2018-09-20T10:14:16.060Z,54.70
2018-09-20T10:16:44.140Z,54.79
2018-09-20T10:19:12.243Z,54.33
2018-09-20T10:21:40.334Z,54.14
2018-09-20T10:24:08.408Z,53.13
2018-09-20T10:26:36.488Z,53.90
2018-09-20T10:29:04.560Z,52.14
2018-09-20T10:31:32.872Z,51.41
2018-09-20T10:34:00.919Z,49.87
2018-09-20T10:36:28.969Z,50.23
2018-09-20T10:38:57.035Z,49.50
2018-09-20T10:41:25.132Z,49.01
2018-09-20T10:43:53.223Z,49.59
2018-09-20T10:46:21.319Z,49.25
2018-09-20T10:48:49.413Z,49.64
2018-09-20T10:51:17.531Z,49.51
2018-09-20T10:53:45.631Z,50.35
2018-09-20T10:56:13.692Z,49.55
2018-09-20T10:58:41.824Z,49.54
2018-09-20T11:01:09.948Z,49.14
2018-09-20T11:03:38.076Z,48.30
2018-09-20T11:06:06.295Z,48.96
2018-09-20T11:08:34.435Z,48.60
2018-09-20T11:11:02.604Z,48.73
2018-09-20T11:13:30.672Z,47.83
2018-09-20T11:15:58.832Z,47.09
2018-09-20T11:18:26.983Z,47.58
2018-09-20T11:20:55.123Z,45.97
2018-09-20T11:23:23.221Z,46.23
2018-09-20T11:25:51.373Z,46.86
2018-09-20T11:28:19.435Z,46.00
2018-09-20T11:30:47.560Z,47.06
2018-09-20T11:33:15.675Z,46.95
2018-09-20T11:35:43.774Z,46.18
2018-09-20T11:38:11.904Z,45.46
2018-09-20T11:40:40.033Z,45.74
2018-09-20T11:43:08.137Z,45.15
2018-09-20T11:45:36.296Z,42.55
2018-09-20T11:48:04.417Z,41.88
2018-09-20T11:50:32.533Z,42.67
2018-09-20T11:53:00.674Z,41.55
2018-09-20T11:55:28.791Z,41.53
2018-09-20T11:57:56.904Z,40.78
2018-09-20T12:00:24.972Z,40.60
2018-09-20T12:02:53.441Z,39.57
2018-09-20T12:05:22.092Z,38.54
2018-09-20T12:07:50.171Z,39.14
2018-09-20T12:10:19.048Z,38.40
2018-09-20T12:12:47.316Z,39.62
2018-09-20T12:15:15.424Z,40.70
2018-09-20T12:17:43.531Z,39.21
2018-09-20T12:20:11.611Z,38.54
2018-09-20T12:22:39.705Z,37.98
2018-09-20T12:25:07.787Z,38.56
2018-09-20T12:27:35.879Z,39.45
2018-09-20T12:30:04.284Z,37.77
2018-09-20T12:32:32.405Z,37.92
2018-09-20T12:35:00.475Z,38.95
2018-09-20T12:37:33.847Z,37.55
2018-09-20T12:40:01.979Z,37.24
2018-09-20T12:42:30.119Z,37.45
2018-09-20T12:44:58.230Z,36.44
2018-09-20T12:47:26.335Z,37.28
2018-09-20T12:49:54.400Z,35.33
2018-09-20T12:52:22.491Z,35.39
2018-09-20T12:54:50.565Z,36.00
2018-09-20T12:57:18.664Z,35.90
2018-09-20T12:59:46.734Z,35.00
2018-09-20T13:02:14.880Z,35.91
2018-09-20T13:04:42.964Z,35.32
2018-09-20T13:07:11.048Z,35.30
2018-09-20T13:09:39.123Z,37.35
2018-09-20T13:12:07.205Z,36.32
2018-09-20T13:14:35.286Z,36.08
2018-09-20T13:17:03.412Z,35.50
2018-09-20T13:19:31.489Z,37.21
2018-09-20T13:21:59.569Z,36.82
2018-09-20T13:24:27.655Z,36.64
2018-09-20T13:26:55.748Z,35.65
2018-09-20T13:29:30.564Z,36.43
2018-09-20T13:31:58.655Z,36.40
2018-09-20T13:34:26.727Z,35.50
2018-09-20T13:36:54.829Z,36.04
2018-09-20T13:39:22.913Z,37.05
2018-09-20T13:41:50.991Z,37.46
2018-09-20T13:44:19.078Z,36.88
2018-09-20T13:46:47.175Z,36.45
2018-09-20T13:49:15.254Z,37.70
2018-09-20T13:51:43.400Z,36.95
2018-09-20T13:54:11.447Z,38.33
2018-09-20T13:56:39.515Z,36.16
2018-09-20T13:59:07.576Z,36.76
2018-09-20T14:01:35.644Z,36.54
2018-09-20T14:04:03.711Z,37.28
2018-09-20T14:06:31.815Z,36.57
2018-09-20T14:08:59.885Z,37.90
2018-09-20T14:11:27.951Z,38.44
2018-09-20T14:13:56.010Z,37.78
2018-09-20T14:16:24.387Z,37.82
2018-09-20T14:18:52.465Z,38.64
2018-09-20T14:21:20.531Z,38.62
2018-09-20T14:23:48.705Z,38.52
2018-09-20T14:26:16.728Z,37.67
2018-09-20T14:28:44.881Z,37.13
2018-09-20T14:31:12.967Z,38.06
2018-09-20T14:33:41.030Z,37.82
2018-09-20T14:36:09.092Z,37.10
2018-09-20T14:38:37.187Z,37.11
2018-09-20T14:41:05.283Z,37.71
2018-09-20T14:43:33.346Z,39.05
2018-09-20T14:46:01.420Z,38.59
2018-09-20T14:48:29.487Z,38.90
2018-09-20T14:50:57.596Z,39.22
2018-09-20T14:53:25.682Z,39.02
2018-09-20T14:55:53.775Z,37.44
2018-09-20T14:58:21.838Z,38.65
2018-09-20T15:00:50.107Z,37.34
2018-09-20T15:03:18.732Z,38.11
2018-09-20T15:05:46.799Z,39.44
2018-09-20T15:08:14.909Z,38.66
2018-09-20T15:10:42.982Z,38.51
2018-09-20T15:13:11.036Z,38.99
2018-09-20T15:15:39.139Z,39.16
2018-09-20T15:18:07.207Z,39.17
2018-09-20T15:20:35.298Z,39.95
2018-09-20T15:23:03.379Z,38.28
2018-09-20T15:25:31.456Z,38.29
2018-09-20T15:27:59.519Z,40.00
2018-09-20T15:30:27.620Z,40.06
2018-09-20T15:32:55.715Z,39.88
2018-09-20T15:35:23.789Z,39.40
2018-09-20T15:37:51.862Z,40.59
2018-09-20T15:40:19.913Z,39.94
2018-09-20T15:42:47.985Z,41.07
2018-09-20T15:45:16.047Z,39.67
2018-09-20T15:47:44.475Z,39.19
2018-09-20T15:50:12.552Z,40.40
2018-09-20T15:52:40.646Z,39.86
2018-09-20T15:55:08.708Z,41.12
2018-09-20T15:57:36.788Z,41.95
2018-09-20T16:00:05.332Z,42.81
2018-09-20T16:02:33.395Z,41.66
2018-09-20T16:05:01.566Z,42.49
2018-09-20T16:07:29.716Z,40.78
2018-09-20T16:09:57.804Z,41.63
2018-09-20T16:12:25.887Z,41.62
2018-09-20T16:14:54.013Z,42.36
2018-09-20T16:17:22.169Z,42.89
2018-09-20T16:19:50.230Z,44.27
2018-09-20T16:22:18.323Z,42.59
2018-09-20T16:24:46.411Z,42.52
2018-09-20T16:27:14.512Z,43.10
2018-09-20T16:30:21.768Z,42.75
2018-09-20T16:33:44.598Z,44.16
2018-09-20T16:36:24.063Z,45.91
2018-09-20T16:38:59.869Z,45.95
2018-09-20T16:41:36.751Z,46.15
2018-09-20T16:44:07.182Z,44.59
2018-09-20T16:46:36.721Z,45.63
2018-09-20T16:49:06.707Z,45.64
2018-09-20T16:51:37.607Z,45.07
2018-09-20T16:54:06.713Z,46.42
2018-09-20T16:56:35.359Z,45.99
2018-09-20T16:59:04.412Z,46.10
2018-09-20T17:01:35.170Z,46.23
2018-09-20T17:04:04.538Z,46.63
2018-09-20T17:06:35.948Z,46.20
2018-09-20T17:09:07.790Z,48.11
2018-09-20T17:11:39.675Z,46.60
2018-09-20T17:14:23.224Z,47.47
2018-09-20T17:17:00.052Z,48.09
2018-09-20T17:19:32.186Z,48.32
2018-09-20T17:22:02.173Z,47.24
2018-09-20T17:24:30.231Z,47.74
2018-09-20T17:26:58.739Z,47.59
2018-09-20T17:29:26.855Z,47.84
2018-09-20T17:31:55.003Z,48.05
2018-09-20T17:34:23.243Z,48.45
2018-09-20T17:36:51.868Z,48.53
2018-09-20T17:39:22.474Z,49.21
2018-09-20T17:41:51.180Z,49.18
2018-09-20T17:44:25.948Z,49.58
2018-09-20T17:46:54.075Z,50.04
2018-09-20T17:49:25.106Z,51.31
2018-09-20T17:54:41.841Z,51.77
2018-09-20T17:59:29.819Z,52.38
2018-09-20T18:04:39.673Z,53.29
2018-09-20T18:07:20.845Z,52.57
2018-09-20T18:09:57.772Z,52.97
2018-09-20T18:12:30.367Z,53.22
2018-09-20T18:15:04.758Z,53.56
2018-09-20T18:17:34.665Z,54.48
2018-09-20T18:20:06.882Z,54.67
2018-09-20T18:22:37.775Z,54.82
2018-09-20T18:25:09.049Z,54.57
2018-09-20T18:27:42.044Z,55.14
2018-09-20T18:30:12.492Z,54.94
2018-09-20T18:32:45.897Z,55.31
2018-09-20T18:35:19.708Z,55.98
2018-09-20T18:37:52.449Z,56.17
2018-09-20T18:40:24.667Z,56.46
2018-09-20T18:43:00.973Z,56.89
2018-09-20T18:45:39.141Z,57.37
2018-09-20T18:48:18.095Z,57.01
2018-09-20T18:50:47.886Z,57.33
2018-09-20T18:53:24.792Z,56.89
2018-09-20T18:56:00.253Z,56.97
2018-09-20T18:58:37.427Z,57.39
2018-09-20T19:01:16.348Z,57.46
2018-09-20T19:04:01.592Z,58.62
2018-09-20T19:06:31.400Z,58.39
2018-09-20T19:09:11.828Z,58.89
2018-09-20T19:11:42.565Z,58.52
2018-09-20T19:14:35.060Z,58.43
2018-09-20T19:20:05.834Z,59.27
2018-09-20T19:22:46.844Z,59.88
2018-09-20T19:25:35.101Z,60.22
2018-09-20T19:28:20.345Z,60.57
2018-09-20T19:30:58.271Z,60.62
2018-09-20T19:33:31.311Z,60.95
2018-09-20T19:36:13.792Z,61.18
2018-09-20T19:39:11.159Z,61.97
2018-09-20T19:46:14.192Z,63.44
2018-09-20T19:49:12.715Z,62.70
2018-09-20T19:55:39.252Z,62.74
2018-09-20T19:58:17.759Z,63.52
2018-09-20T20:03:55.352Z,63.46
2018-09-20T20:06:29.018Z,64.17
2018-09-20T20:09:30.742Z,64.89
2018-09-20T20:12:01.536Z,65.14
2018-09-20T20:20:26.080Z,64.63
2018-09-20T20:34:08.503Z,66.98
2018-09-20T20:46:52.482Z,68.30
2018-09-20T20:52:01.325Z,68.94
2018-09-20T20:54:38.148Z,69.18
2018-09-20T21:05:44.923Z,69.41
2018-09-20T21:08:36.785Z,69.07
2018-09-20T21:11:26.320Z,69.25
2018-09-20T21:13:54.526Z,69.40
2018-09-20T21:16:22.668Z,69.96
2018-09-20T21:18:50.895Z,70.23
2018-09-20T21:21:19.198Z,69.98
2018-09-20T21:23:47.384Z,70.06
2018-09-20T21:26:16.002Z,70.57
2018-09-20T21:28:44.276Z,70.32
2018-09-20T21:31:12.461Z,71.23
2018-09-20T21:33:40.818Z,70.38
2018-09-20T21:36:09.675Z,70.20
2018-09-20T21:38:39.092Z,71.43
2018-09-20T21:41:07.380Z,72.17
2018-09-20T21:43:35.588Z,71.83
2018-09-20T21:46:03.942Z,72.34
2018-09-20T21:48:32.318Z,72.12
2018-09-20T21:51:01.002Z,70.89
2018-09-20T21:53:29.189Z,71.34
2018-09-20T21:55:57.377Z,71.83
2018-09-20T21:58:25.552Z,72.77
2018-09-20T22:01:02.420Z,72.83
2018-09-20T22:03:31.276Z,71.93
2018-09-20T22:05:59.459Z,73.74
2018-09-20T22:08:27.644Z,73.55
2018-09-20T22:10:56.001Z,73.68
2018-09-20T22:13:24.479Z,74.69
2018-09-20T22:15:52.776Z,75.05
2018-09-20T22:18:21.020Z,75.35
2018-09-20T22:20:49.217Z,74.17
2018-09-20T22:23:17.459Z,74.08
2018-09-20T22:25:45.719Z,75.02
2018-09-20T22:28:13.932Z,75.49
2018-09-20T22:30:42.173Z,75.21
2018-09-20T22:33:10.374Z,74.71
2018-09-20T22:35:38.633Z,74.37
2018-09-20T22:38:06.865Z,75.19
2018-09-20T22:40:34.923Z,74.59
2018-09-20T22:43:03.003Z,75.43
2018-09-20T22:45:31.069Z,75.81
2018-09-20T22:47:59.169Z,75.89
2018-09-20T22:50:27.281Z,76.72
2018-09-20T22:52:55.348Z,75.89
2018-09-20T22:55:23.446Z,76.67
2018-09-20T22:57:51.507Z,77.09
2018-09-20T23:00:23.948Z,76.34
2018-09-20T23:02:53.144Z,76.51
2018-09-20T23:05:21.249Z,75.72
2018-09-20T23:07:49.318Z,75.83
2018-09-20T23:10:17.419Z,77.14
2018-09-20T23:12:46.004Z,77.07
2018-09-20T23:15:14.101Z,76.60
2018-09-20T23:17:42.150Z,77.47
2018-09-20T23:20:10.220Z,77.17
2018-09-20T23:22:38.288Z,77.93
2018-09-20T23:25:06.440Z,77.66
2018-09-20T23:27:34.501Z,78.61
2018-09-20T23:30:02.579Z,78.32
2018-09-20T23:32:30.675Z,77.45
2018-09-20T23:34:58.766Z,78.07
2018-09-20T23:37:26.827Z,78.46
2018-09-20T23:39:54.883Z,78.01
2018-09-20T23:42:22.950Z,78.25
2018-09-20T23:44:51.015Z,78.12
2018-09-20T23:47:19.068Z,77.87
2018-09-20T23:49:47.151Z,78.32
2018-09-20T23:52:15.211Z,77.75
2018-09-20T23:54:43.293Z,78.69
2018-09-20T23:57:11.370Z,79.28
2018-09-20T23:59:39.451Z,78.22
